METAR Formatted Surface Weather Observation
Issued by NWS

Home | Current Version | Previous Version | Text Only | Print | Product List | Glossary On
Versions: 1 2 3 4 5 6 7 8 9 10 11 12 13 14 15 16 17 18 19 20
493
SAUS41 KCAR 220400 COR
MTRGNR
METAR KGNR 220356Z AUTO 18003KT 02/M04 A2988 RMK AO1 SLP137
T00221039



USA.gov is the U.S. government's official web portal to all federal, state and local government web resources and services.